Аэропорт
Международный аэропорт Санья Феникс (ZJSY)

 ZJSY / SYX

China
CN-46
Санья
 18.30290, 109.41200  / 92 ft

 ZJSY 182200Z 09003MPS 9999 SCT015 FEW026CB 27/26 Q1005 BECMG AT2350 SCT020
 TAF AMD ZJSY 181501Z 1812/1912 09005MPS 9999 SCT020 BKN040 TX30/1906Z TN26/1821Z TEMPO 1815/1821 TSRA SCT016 FEW025CB BKN040 TEMPO 1902/1908 TSRA SCT015 FEW026CB BKN040

2020 © VATRUS division (Privacy Policy)